createdAt,value
2023-09-23T00:01:19.100Z,77.67
2023-09-23T00:03:48.176Z,77.77
2023-09-23T00:06:16.600Z,77.92
2023-09-23T00:08:49.145Z,77.89
2023-09-23T00:11:17.847Z,78.07
2023-09-23T00:13:47.369Z,78.36
2023-09-23T00:16:15.966Z,78.46
2023-09-23T00:18:46.130Z,78.62
2023-09-23T00:21:15.977Z,78.77
2023-09-23T00:23:47.478Z,79.05
2023-09-23T00:26:19.019Z,79.26
2023-09-23T00:28:50.786Z,79.45
2023-09-23T00:31:20.617Z,79.66
2023-09-23T00:33:51.820Z,79.85
2023-09-23T00:36:21.279Z,80.04
2023-09-23T00:38:49.808Z,80.00
2023-09-23T00:41:19.340Z,80.22
2023-09-23T00:43:49.864Z,80.40
2023-09-23T00:46:23.656Z,80.46
2023-09-23T00:48:52.233Z,80.60
2023-09-23T00:51:22.428Z,80.67
2023-09-23T00:53:52.012Z,80.81
2023-09-23T00:56:24.593Z,80.97
2023-09-23T00:58:52.762Z,80.83
2023-09-23T01:01:22.398Z,80.85
2023-09-23T01:03:51.339Z,81.00
2023-09-23T01:06:20.665Z,81.17
2023-09-23T01:08:50.819Z,81.23
2023-09-23T01:11:20.014Z,81.35
2023-09-23T01:13:52.816Z,81.49
2023-09-23T01:16:23.392Z,81.73
2023-09-23T01:18:52.201Z,81.88
2023-09-23T01:21:20.225Z,81.92
2023-09-23T01:23:48.410Z,82.03
2023-09-23T01:26:17.857Z,82.32
2023-09-23T01:28:49.045Z,82.42
2023-09-23T01:31:22.764Z,82.50
2023-09-23T01:33:52.213Z,82.78
2023-09-23T01:36:20.639Z,82.77
2023-09-23T01:38:53.345Z,82.82
2023-09-23T01:41:21.468Z,82.88
2023-09-23T01:43:50.690Z,83.00
2023-09-23T01:46:21.243Z,83.27
2023-09-23T01:48:49.442Z,83.73
2023-09-23T01:51:19.087Z,83.59
2023-09-23T01:53:47.404Z,83.60
2023-09-23T01:56:15.692Z,83.62
2023-09-23T01:58:45.946Z,83.90
2023-09-23T02:01:14.643Z,84.20
2023-09-23T02:03:43.755Z,84.11
2023-09-23T02:06:12.097Z,84.15
2023-09-23T02:08:40.284Z,84.32
2023-09-23T02:11:08.401Z,84.51
2023-09-23T02:13:41.689Z,84.62
2023-09-23T02:16:11.481Z,84.59
2023-09-23T02:18:43.442Z,84.78
2023-09-23T02:21:14.053Z,84.91
2023-09-23T02:23:43.327Z,84.88
2023-09-23T02:26:11.633Z,85.08
2023-09-23T02:28:40.076Z,85.17
2023-09-23T02:31:28.173Z,85.29
2023-09-23T02:34:04.438Z,85.34
2023-09-23T02:36:36.258Z,85.41
2023-09-23T02:39:06.167Z,85.61
2023-09-23T02:41:34.274Z,85.84
2023-09-23T02:44:05.511Z,86.08
2023-09-23T02:46:34.021Z,86.05
2023-09-23T02:49:02.194Z,85.99
2023-09-23T02:51:30.351Z,86.34
2023-09-23T02:54:00.407Z,86.19
2023-09-23T02:56:29.610Z,86.10
2023-09-23T02:58:58.571Z,86.39
2023-09-23T03:01:47.142Z,86.26
2023-09-23T03:04:20.916Z,86.54
2023-09-23T03:06:51.507Z,86.28
2023-09-23T03:09:24.397Z,86.43
2023-09-23T03:11:57.396Z,86.78
2023-09-23T03:14:39.738Z,86.72
2023-09-23T03:17:08.846Z,86.57
2023-09-23T03:19:37.925Z,86.74
2023-09-23T03:22:06.943Z,86.89
2023-09-23T03:24:36.345Z,87.11
2023-09-23T03:27:12.297Z,87.13
2023-09-23T03:29:50.952Z,87.12
2023-09-23T03:32:22.051Z,87.24
2023-09-23T03:34:51.936Z,87.30
2023-09-23T03:37:20.342Z,87.58
2023-09-23T03:39:48.518Z,87.64
2023-09-23T03:42:18.001Z,87.49
2023-09-23T03:44:46.070Z,88.01
2023-09-23T03:47:14.412Z,88.27
2023-09-23T03:49:44.352Z,88.54
2023-09-23T03:52:14.376Z,88.87
2023-09-23T03:54:42.440Z,88.64
2023-09-23T03:57:10.566Z,88.42
2023-09-23T03:59:38.711Z,88.23
2023-09-23T04:02:09.007Z,88.17
2023-09-23T04:04:39.088Z,88.05
2023-09-23T04:07:08.952Z,88.01
2023-09-23T04:09:42.556Z,88.14
2023-09-23T04:12:20.846Z,88.41
2023-09-23T04:14:49.124Z,88.64
2023-09-23T04:17:17.527Z,88.71
2023-09-23T04:19:46.182Z,88.80
2023-09-23T04:22:15.388Z,88.66
2023-09-23T04:24:43.484Z,88.76
2023-09-23T04:27:11.758Z,88.73
2023-09-23T04:29:40.049Z,88.66
2023-09-23T04:32:08.510Z,88.93
2023-09-23T04:34:37.255Z,89.06
2023-09-23T04:37:09.060Z,89.20
2023-09-23T04:39:38.132Z,89.25
2023-09-23T04:42:06.270Z,89.50
2023-09-23T04:44:35.334Z,89.74
2023-09-23T04:47:03.433Z,89.79
2023-09-23T04:49:31.519Z,89.92
2023-09-23T04:51:59.561Z,90.20
2023-09-23T04:54:27.627Z,90.46
2023-09-23T04:56:55.827Z,90.48
2023-09-23T04:59:24.254Z,90.74
2023-09-23T05:01:52.598Z,90.87
2023-09-23T05:04:20.878Z,90.76
2023-09-23T05:06:48.863Z,90.79
2023-09-23T05:09:17.732Z,90.89
2023-09-23T05:11:46.055Z,90.99
2023-09-23T05:14:17.949Z,91.52
2023-09-23T05:17:02.081Z,91.48
2023-09-23T05:19:30.181Z,91.37
2023-09-23T05:21:59.068Z,91.62
2023-09-23T05:24:30.477Z,91.42
2023-09-23T05:27:01.171Z,91.02
2023-09-23T05:29:29.299Z,90.93
2023-09-23T05:31:57.328Z,90.93
2023-09-23T05:34:25.308Z,91.26
2023-09-23T05:36:54.669Z,91.45
2023-09-23T05:39:22.779Z,91.23
2023-09-23T05:41:52.452Z,90.87
2023-09-23T05:44:20.602Z,90.77
2023-09-23T05:46:49.949Z,90.60
2023-09-23T05:49:20.210Z,90.76
2023-09-23T05:51:49.585Z,90.99
2023-09-23T05:54:17.537Z,90.77
2023-09-23T05:56:45.580Z,90.54
2023-09-23T05:59:13.754Z,90.74
2023-09-23T06:01:42.307Z,90.68
2023-09-23T06:04:11.345Z,90.83
2023-09-23T06:06:59.387Z,90.52
2023-09-23T06:09:27.864Z,90.64
2023-09-23T06:11:56.083Z,90.70
2023-09-23T06:14:24.997Z,90.35
2023-09-23T06:16:53.153Z,90.15
2023-09-23T06:19:21.845Z,90.24
2023-09-23T06:21:50.001Z,89.78
2023-09-23T06:24:18.325Z,89.42
2023-09-23T06:26:46.380Z,89.34
2023-09-23T06:29:17.575Z,89.02
2023-09-23T06:31:45.782Z,89.25
2023-09-23T06:34:14.229Z,88.70
2023-09-23T06:36:42.245Z,88.09
2023-09-23T06:39:10.369Z,87.81
2023-09-23T06:41:38.425Z,87.95
2023-09-23T06:44:08.562Z,87.82
2023-09-23T06:46:36.909Z,87.71
2023-09-23T06:49:05.133Z,87.40
2023-09-23T06:51:33.331Z,87.23
2023-09-23T06:54:01.326Z,87.18
2023-09-23T06:56:29.782Z,87.06
2023-09-23T06:58:57.931Z,87.06
2023-09-23T07:01:26.439Z,86.70
2023-09-23T07:03:54.938Z,86.39
2023-09-23T07:06:23.105Z,86.43
2023-09-23T07:08:51.154Z,86.58
2023-09-23T07:11:19.257Z,86.21
2023-09-23T07:13:48.022Z,85.87
2023-09-23T07:16:16.514Z,85.51
2023-09-23T07:18:47.348Z,85.20
2023-09-23T07:21:35.485Z,84.97
2023-09-23T07:24:05.693Z,84.70
2023-09-23T07:26:36.012Z,84.29
2023-09-23T07:29:04.329Z,84.01
2023-09-23T07:31:32.496Z,83.55
2023-09-23T07:34:00.854Z,83.49
2023-09-23T07:36:29.001Z,83.17
2023-09-23T07:38:57.084Z,82.67
2023-09-23T07:41:25.292Z,82.51
2023-09-23T07:43:53.520Z,82.38
2023-09-23T07:46:22.046Z,82.02
2023-09-23T07:48:50.167Z,81.28
2023-09-23T07:51:18.193Z,81.12
2023-09-23T07:53:46.499Z,81.00
2023-09-23T07:56:14.778Z,80.99
2023-09-23T07:58:42.783Z,80.91
2023-09-23T08:01:10.797Z,80.83
2023-09-23T08:03:39.013Z,80.71
2023-09-23T08:06:07.058Z,80.46
2023-09-23T08:08:35.052Z,80.29
2023-09-23T08:11:04.239Z,79.97
2023-09-23T08:13:32.268Z,79.94
2023-09-23T08:16:01.288Z,79.90
2023-09-23T08:18:29.412Z,80.21
2023-09-23T08:21:01.361Z,79.85
2023-09-23T08:23:30.014Z,79.79
2023-09-23T08:25:58.220Z,79.85
2023-09-23T08:28:26.286Z,79.65
2023-09-23T08:30:54.480Z,79.48
2023-09-23T08:33:22.668Z,79.32
2023-09-23T08:35:50.724Z,78.81
2023-09-23T08:38:18.717Z,78.19
2023-09-23T08:40:49.239Z,78.04
2023-09-23T08:43:22.003Z,77.99
2023-09-23T08:45:51.536Z,77.91
2023-09-23T08:48:20.866Z,77.39
2023-09-23T08:50:53.254Z,76.89
2023-09-23T08:53:23.726Z,76.57
2023-09-23T08:55:54.273Z,76.53
2023-09-23T08:58:22.940Z,76.42
2023-09-23T09:00:52.940Z,76.22
2023-09-23T09:03:21.022Z,75.69
2023-09-23T09:05:49.683Z,75.52
2023-09-23T09:08:19.747Z,75.63
2023-09-23T09:10:48.346Z,75.44
2023-09-23T09:13:18.762Z,75.35
2023-09-23T09:15:47.097Z,75.73
2023-09-23T09:18:18.374Z,75.91
2023-09-23T09:20:46.685Z,75.16
2023-09-23T09:23:16.124Z,74.79
2023-09-23T09:25:50.409Z,74.57
2023-09-23T09:28:20.243Z,74.49
2023-09-23T09:30:57.844Z,74.61
2023-09-23T09:33:27.978Z,74.49
2023-09-23T09:35:57.293Z,73.91
2023-09-23T09:38:26.922Z,73.35
2023-09-23T09:41:20.721Z,72.85
2023-09-23T09:43:49.675Z,72.54
2023-09-23T09:46:22.036Z,71.47
2023-09-23T09:48:51.345Z,70.88
2023-09-23T09:51:23.764Z,70.51
2023-09-23T09:53:52.650Z,70.20
2023-09-23T09:56:22.263Z,69.08
2023-09-23T09:58:50.793Z,68.79
2023-09-23T10:01:19.314Z,68.70
2023-09-23T10:03:50.985Z,68.93
2023-09-23T10:06:20.644Z,68.94
2023-09-23T10:08:53.005Z,69.06
2023-09-23T10:11:36.026Z,68.16
2023-09-23T10:14:18.033Z,65.92
2023-09-23T10:16:53.869Z,64.74
2023-09-23T10:19:34.997Z,64.43
2023-09-23T10:22:22.574Z,63.40
2023-09-23T10:25:05.891Z,61.89
2023-09-23T10:27:37.908Z,60.47
2023-09-23T10:30:07.778Z,59.99
2023-09-23T10:32:36.154Z,59.29
2023-09-23T10:35:04.732Z,59.36
2023-09-23T10:37:37.078Z,59.48
2023-09-23T10:40:15.806Z,59.15
2023-09-23T10:42:50.430Z,58.56
2023-09-23T10:45:19.051Z,57.53
2023-09-23T10:47:47.549Z,57.67
2023-09-23T10:50:16.904Z,57.44
2023-09-23T10:52:45.337Z,57.49
2023-09-23T10:55:14.294Z,57.03
2023-09-23T10:57:44.326Z,56.37
2023-09-23T11:00:21.797Z,55.82
2023-09-23T11:02:54.022Z,55.85
2023-09-23T11:05:24.116Z,55.78
2023-09-23T11:07:57.656Z,55.49
2023-09-23T11:10:28.328Z,55.12
2023-09-23T11:12:56.785Z,54.39
2023-09-23T11:15:24.834Z,53.58
2023-09-23T11:17:57.271Z,53.55
2023-09-23T11:20:33.757Z,53.53
2023-09-23T11:23:07.165Z,54.01
2023-09-23T11:25:47.907Z,53.53
2023-09-23T11:28:24.205Z,53.46
2023-09-23T11:30:54.657Z,54.04
2023-09-23T11:33:22.858Z,53.60
2023-09-23T11:35:51.328Z,52.41
2023-09-23T11:38:20.838Z,52.49
2023-09-23T11:40:49.578Z,52.14
2023-09-23T11:43:37.912Z,51.54
2023-09-23T11:46:06.017Z,51.45
2023-09-23T11:48:36.476Z,51.35
2023-09-23T11:51:04.920Z,50.83
2023-09-23T11:53:32.930Z,50.49
2023-09-23T11:56:01.632Z,50.63
2023-09-23T11:58:29.821Z,49.83
2023-09-23T12:00:57.969Z,49.10
2023-09-23T12:03:28.520Z,49.01
2023-09-23T12:05:56.573Z,48.68
2023-09-23T12:08:24.733Z,48.52
2023-09-23T12:10:54.242Z,48.50
2023-09-23T12:13:25.981Z,48.32
2023-09-23T12:15:58.182Z,47.97
2023-09-23T12:18:26.509Z,47.99
2023-09-23T12:20:54.885Z,47.77
2023-09-23T12:23:22.887Z,47.88
2023-09-23T12:25:51.329Z,47.17
2023-09-23T12:28:19.666Z,47.39
2023-09-23T12:30:50.002Z,46.72
2023-09-23T12:33:18.772Z,46.64
2023-09-23T12:35:47.782Z,46.92
2023-09-23T12:38:16.094Z,46.56
2023-09-23T12:40:45.079Z,46.60
2023-09-23T12:43:13.369Z,47.08
2023-09-23T12:45:43.060Z,47.45
2023-09-23T12:48:11.772Z,47.14
2023-09-23T12:50:39.897Z,46.90
2023-09-23T12:53:07.986Z,46.62
2023-09-23T12:55:36.004Z,46.40
2023-09-23T12:58:04.646Z,46.65
2023-09-23T13:00:33.019Z,46.27
2023-09-23T13:03:01.842Z,46.80
2023-09-23T13:05:29.978Z,46.65
2023-09-23T13:07:58.069Z,46.29
2023-09-23T13:10:26.217Z,46.19
2023-09-23T13:12:54.386Z,45.89
2023-09-23T13:15:22.875Z,45.45
2023-09-23T13:17:51.021Z,45.56
2023-09-23T13:20:19.213Z,45.56
2023-09-23T13:22:47.518Z,45.45
2023-09-23T13:25:16.577Z,45.55
2023-09-23T13:27:44.615Z,45.39
2023-09-23T13:30:12.760Z,45.23
2023-09-23T13:32:40.798Z,44.76
2023-09-23T13:35:11.117Z,44.96
2023-09-23T13:37:39.879Z,44.70
2023-09-23T13:40:08.458Z,44.46
2023-09-23T13:42:36.634Z,44.66
2023-09-23T13:45:08.656Z,44.66
2023-09-23T13:47:38.914Z,44.86
2023-09-23T13:50:11.142Z,45.26
2023-09-23T13:52:40.108Z,45.15
2023-09-23T13:55:09.557Z,45.28
2023-09-23T13:57:38.298Z,45.21
2023-09-23T14:00:09.177Z,45.32
2023-09-23T14:02:37.634Z,45.11
2023-09-23T14:05:06.087Z,44.91
2023-09-23T14:07:36.061Z,44.96
2023-09-23T14:10:18.883Z,44.84
2023-09-23T14:12:50.155Z,45.16
2023-09-23T14:15:18.849Z,44.89
2023-09-23T14:17:48.980Z,44.88
2023-09-23T14:20:17.448Z,44.90
2023-09-23T14:22:47.079Z,44.56
2023-09-23T14:25:18.444Z,44.93
2023-09-23T14:27:46.673Z,45.02
2023-09-23T14:30:14.908Z,44.65
2023-09-23T14:32:43.017Z,44.56
2023-09-23T14:35:11.121Z,44.89
2023-09-23T14:37:39.599Z,45.10
2023-09-23T14:40:08.267Z,45.07
2023-09-23T14:42:36.238Z,45.09
2023-09-23T14:45:05.279Z,45.16
2023-09-23T14:47:33.474Z,45.00
2023-09-23T14:50:01.984Z,45.41
2023-09-23T14:52:30.196Z,45.38
2023-09-23T14:54:58.227Z,45.37
2023-09-23T14:57:27.534Z,45.65
2023-09-23T14:59:55.968Z,45.90
2023-09-23T15:02:24.575Z,45.90
2023-09-23T15:04:53.013Z,45.93
2023-09-23T15:07:21.889Z,46.21
2023-09-23T15:09:51.866Z,46.28
2023-09-23T15:12:19.901Z,46.54
2023-09-23T15:14:47.929Z,46.44
2023-09-23T15:17:17.907Z,46.66
2023-09-23T15:19:46.257Z,46.98
2023-09-23T15:22:14.169Z,47.15
2023-09-23T15:24:45.378Z,47.30
2023-09-23T15:27:15.530Z,47.29
2023-09-23T15:29:46.270Z,47.36
2023-09-23T15:32:15.271Z,48.07
2023-09-23T15:34:43.363Z,48.51
2023-09-23T15:37:11.720Z,48.84
2023-09-23T15:39:40.262Z,49.27
2023-09-23T15:42:08.240Z,49.42
2023-09-23T15:44:36.543Z,49.54
2023-09-23T15:47:05.675Z,49.65
2023-09-23T15:49:43.809Z,49.93
2023-09-23T15:52:12.839Z,50.17
2023-09-23T15:54:41.079Z,50.43
2023-09-23T15:57:11.804Z,50.79
2023-09-23T15:59:40.077Z,51.15
2023-09-23T16:02:09.473Z,51.27
2023-09-23T16:04:37.788Z,51.70
2023-09-23T16:07:05.953Z,51.86
2023-09-23T16:09:34.705Z,52.06
2023-09-23T16:12:03.177Z,52.30
2023-09-23T16:14:31.467Z,52.55
2023-09-23T16:17:00.164Z,52.67
2023-09-23T16:19:29.827Z,53.03
2023-09-23T16:21:58.743Z,53.18
2023-09-23T16:24:27.484Z,53.42
2023-09-23T16:26:56.115Z,53.60
2023-09-23T16:29:24.292Z,53.62
2023-09-23T16:31:52.440Z,53.66
2023-09-23T16:34:20.513Z,53.81
2023-09-23T16:36:48.513Z,53.59
2023-09-23T16:39:16.642Z,53.63
2023-09-23T16:41:44.980Z,53.81
2023-09-23T16:44:13.071Z,53.79
2023-09-23T16:46:41.194Z,53.80
2023-09-23T16:49:09.167Z,54.10
2023-09-23T16:51:37.270Z,54.41
2023-09-23T16:54:05.375Z,54.37
2023-09-23T16:56:34.113Z,54.48
2023-09-23T16:59:02.283Z,54.49
2023-09-23T17:01:30.136Z,54.67
2023-09-23T17:03:58.156Z,54.63
2023-09-23T17:06:28.502Z,54.61
2023-09-23T17:08:56.517Z,54.83
2023-09-23T17:11:24.671Z,54.78
2023-09-23T17:13:52.915Z,54.65
2023-09-23T17:16:20.951Z,54.69
2023-09-23T17:18:49.138Z,54.70
2023-09-23T17:21:19.977Z,54.62
2023-09-23T17:23:49.435Z,54.71
2023-09-23T17:26:17.802Z,54.55
2023-09-23T17:28:46.463Z,54.48
2023-09-23T17:31:15.234Z,54.49
2023-09-23T17:33:43.824Z,54.49
2023-09-23T17:36:12.014Z,54.33
2023-09-23T17:38:40.174Z,54.50
2023-09-23T17:41:13.047Z,54.76
2023-09-23T17:43:41.397Z,54.88
2023-09-23T17:46:12.824Z,55.16
2023-09-23T17:48:40.905Z,55.43
2023-09-23T17:51:09.306Z,55.64
2023-09-23T17:53:37.518Z,55.94
2023-09-23T17:56:06.029Z,56.14
2023-09-23T17:58:35.837Z,56.48
2023-09-23T18:01:06.053Z,56.90
2023-09-23T18:03:35.306Z,57.29
2023-09-23T18:06:03.646Z,57.61
2023-09-23T18:08:32.015Z,58.00
2023-09-23T18:11:00.168Z,58.35
2023-09-23T18:13:29.921Z,58.73
2023-09-23T18:15:58.275Z,59.09
2023-09-23T18:18:28.532Z,59.39
2023-09-23T18:20:57.036Z,59.57
2023-09-23T18:23:25.100Z,59.83
2023-09-23T18:25:53.438Z,60.17
2023-09-23T18:28:24.442Z,60.61
2023-09-23T18:30:53.576Z,60.96
2023-09-23T18:33:23.045Z,61.35
2023-09-23T18:35:51.439Z,61.80
2023-09-23T18:38:20.420Z,62.14
2023-09-23T18:40:49.678Z,62.37
2023-09-23T18:43:17.863Z,62.73
2023-09-23T18:45:48.275Z,62.92
2023-09-23T18:48:25.852Z,63.28
2023-09-23T18:50:55.127Z,63.61
2023-09-23T18:53:23.256Z,63.93
2023-09-23T18:55:52.778Z,64.24
2023-09-23T18:58:20.708Z,64.58
2023-09-23T19:00:52.095Z,64.82
2023-09-23T19:03:20.746Z,65.16
2023-09-23T19:05:50.158Z,65.58
2023-09-23T19:08:18.579Z,65.95
2023-09-23T19:10:48.172Z,66.18
2023-09-23T19:13:16.189Z,66.51
2023-09-23T19:15:49.116Z,66.80
2023-09-23T19:18:17.926Z,67.13
2023-09-23T19:20:47.111Z,67.39
2023-09-23T19:23:15.605Z,67.51
2023-09-23T19:25:43.704Z,67.73
2023-09-23T19:28:15.302Z,67.80
2023-09-23T19:30:43.841Z,68.01
2023-09-23T19:33:12.008Z,68.12
2023-09-23T19:35:40.459Z,68.16
2023-09-23T19:38:09.054Z,68.29
2023-09-23T19:40:39.894Z,68.41
2023-09-23T19:43:08.568Z,68.57
2023-09-23T19:45:36.967Z,68.57
2023-09-23T19:48:05.895Z,68.82
2023-09-23T19:50:41.771Z,69.02
2023-09-23T19:53:11.133Z,69.09
2023-09-23T19:55:42.203Z,69.14
2023-09-23T19:58:13.060Z,69.30
2023-09-23T20:00:42.092Z,69.51
2023-09-23T20:03:11.799Z,69.64
2023-09-23T20:05:40.496Z,69.84
2023-09-23T20:08:09.462Z,70.04
2023-09-23T20:10:38.489Z,70.18
2023-09-23T20:13:07.195Z,70.42
2023-09-23T20:15:37.250Z,70.57
2023-09-23T20:18:05.789Z,70.77
2023-09-23T20:20:35.401Z,71.00
2023-09-23T20:23:05.702Z,71.20
2023-09-23T20:25:34.195Z,71.28
2023-09-23T20:28:02.455Z,71.41
2023-09-23T20:30:30.873Z,71.65
2023-09-23T20:32:59.494Z,71.92
2023-09-23T20:35:27.951Z,71.92
2023-09-23T20:38:01.236Z,72.23
2023-09-23T20:40:30.173Z,72.56
2023-09-23T20:43:02.118Z,72.73
2023-09-23T20:45:30.187Z,73.16
2023-09-23T20:47:58.320Z,74.46
2023-09-23T20:50:28.895Z,74.31
2023-09-23T20:52:58.789Z,74.24
2023-09-23T20:55:29.236Z,74.54
2023-09-23T20:57:57.253Z,74.65
2023-09-23T21:00:25.801Z,74.82
2023-09-23T21:02:54.159Z,74.95
2023-09-23T21:05:22.448Z,74.99
2023-09-23T21:07:52.391Z,75.25
2023-09-23T21:10:20.699Z,75.45
2023-09-23T21:12:48.983Z,75.83
2023-09-23T21:15:17.832Z,76.49
2023-09-23T21:17:47.536Z,76.53
2023-09-23T21:20:16.021Z,76.54
2023-09-23T21:22:48.085Z,76.56
2023-09-23T21:25:17.323Z,76.51
2023-09-23T21:27:45.440Z,76.48
2023-09-23T21:30:13.686Z,76.63
2023-09-23T21:32:41.756Z,76.65
2023-09-23T21:35:11.363Z,76.72
2023-09-23T21:37:39.543Z,76.67
2023-09-23T21:40:09.077Z,76.54
2023-09-23T21:42:39.661Z,76.62
2023-09-23T21:45:08.596Z,76.58
2023-09-23T21:47:39.886Z,76.69
2023-09-23T21:50:08.303Z,76.75
2023-09-23T21:52:36.480Z,76.90
2023-09-23T21:55:04.708Z,76.84
2023-09-23T21:57:34.396Z,76.97
2023-09-23T22:00:26.922Z,77.08
2023-09-23T22:03:00.529Z,77.38
2023-09-23T22:05:31.493Z,77.54
2023-09-23T22:08:01.711Z,77.59
2023-09-23T22:10:30.906Z,77.80
2023-09-23T22:13:00.433Z,77.82
2023-09-23T22:15:29.570Z,77.77
2023-09-23T22:17:58.879Z,78.01
2023-09-23T22:20:28.274Z,78.62
2023-09-23T22:22:58.028Z,78.63
2023-09-23T22:25:27.025Z,78.82
2023-09-23T22:28:01.725Z,79.03
2023-09-23T22:30:30.634Z,79.43
2023-09-23T22:33:00.802Z,79.56
2023-09-23T22:35:31.215Z,79.62
2023-09-23T22:38:01.326Z,79.86
2023-09-23T22:40:32.046Z,79.99
2023-09-23T22:43:01.063Z,80.03
2023-09-23T22:45:38.533Z,79.82
2023-09-23T22:48:14.155Z,79.93
2023-09-23T22:50:42.484Z,79.84
2023-09-23T22:53:11.408Z,79.95
2023-09-23T22:55:41.440Z,80.01
2023-09-23T22:58:09.471Z,80.19
2023-09-23T23:00:38.218Z,80.08
2023-09-23T23:03:09.397Z,80.17
2023-09-23T23:05:38.152Z,80.05
2023-09-23T23:08:10.827Z,80.15
2023-09-23T23:10:39.113Z,80.04
2023-09-23T23:13:10.758Z,80.17
2023-09-23T23:15:40.841Z,80.53
2023-09-23T23:18:12.081Z,80.96
2023-09-23T23:20:40.961Z,81.20
2023-09-23T23:23:09.039Z,81.36
2023-09-23T23:25:40.999Z,81.41
2023-09-23T23:28:08.915Z,81.63
2023-09-23T23:30:37.354Z,81.98
2023-09-23T23:33:05.950Z,81.99
2023-09-23T23:35:38.578Z,82.23
2023-09-23T23:38:07.177Z,82.16
2023-09-23T23:40:37.563Z,82.17
2023-09-23T23:43:05.645Z,82.41
2023-09-23T23:45:35.812Z,82.55
2023-09-23T23:48:08.175Z,82.60
2023-09-23T23:50:36.542Z,82.64
2023-09-23T23:53:05.444Z,82.48
2023-09-23T23:55:33.464Z,82.85
2023-09-23T23:58:01.676Z,82.81
